Главная страница
METAR-TAF:

METAR-TAF

Аэропорты :

Вьентьян, Лаос

Ваттай

широта: 17-57N, долгота: 102-34E, высота над уровнем моря: 171 м

Текущие метеонаблюдения

Эта сводка был подготовлена 24 минут назад, в 05:30 UTC
Ветер 2 Узел от юго-западный
Температура 30°C
Влажность 46%
Давление 1009 hPa
Видимость: 8000 м

METAR: VLVT 240530Z 22002KT 8000 NSC 30/17 Q1009 NOSIG

Время: 12:54 (05:54 UTC)

Прогноз

Эта сводка был подготовлена 54 минут назад, в 05:00 UTC
Прогноз действительный с 24-го 06 UTC до 25-го 06 UTC
Ветер 6 Узел от восточный
Видимость: 8000 м
небольшая облачность на высоте 2000 фута
небольшая облачность на высоте 5000 фута
временами
С 24-го 16 UTC до 24-го 23 UTC
Видимость: 3000 м
небольшая облачность на высоте 5000 фута
небольшая облачность на высоте 20000 фута
дымка

TAF: VLVT 240500Z 2406/2506 09006KT 8000 FEW020 FEW050 TEMPO 2416/2423 3000 BR FEW050 FEW200

Метеонаблюдения и прогнозы для более 4000 аэропортов (сводки METAR и TAF).

Имеющиеся станции представлены на карте желтыми и красными точками.

Чтобы увидеть название станции, наведите на нее мышь.

Затем щелкните, чтобы увидеть метеонаблюдения и метеопрогнозы.

Управление картой: чтобы увеличить масштаб, щелкните зеленые кнопки с черным крестиком; чтобы уменьшить масштаб, щелкните зеленую кнопку с тире; для просмотра соседних карт щелкайте зеленые стрелки.


METAR-TAF: